TAF Text Data
IDs:
Format:
Raw Decoded Include METAR

Data at: 0544 UTC 07 Dec 2022

KCAR 070520Z 0706/0806 15006KT P6SM VCSH OVC020
  FM070800 14007KT 6SM -RA BR OVC006
  FM072200 15008KT 2SM -RA BR OVC004 WS020/18045KT
  FM080100 16005KT 2SM -RA BR OVC003 WS020/19035KT
  FM080500 00000KT 4SM -RA BR OVC003